sensor_id;sensor_type;location;lat;lon;timestamp;P1;durP1;ratioP1;P2;durP2;ratioP2
64560;SDS011;50960;46.838;16.838;2023-06-24T00:02:20;7.65;;;6.85;;
64560;SDS011;50960;46.838;16.838;2023-06-24T00:04:50;7.05;;;6.32;;
64560;SDS011;50960;46.838;16.838;2023-06-24T00:07:17;9.35;;;6.68;;
64560;SDS011;50960;46.838;16.838;2023-06-24T00:09:44;7.40;;;6.43;;
64560;SDS011;50960;46.838;16.838;2023-06-24T00:12:10;8.45;;;6.68;;
64560;SDS011;50960;46.838;16.838;2023-06-24T00:14:45;9.43;;;6.72;;
64560;SDS011;50960;46.838;16.838;2023-06-24T00:17:12;7.75;;;6.90;;
64560;SDS011;50960;46.838;16.838;2023-06-24T00:19:38;8.45;;;7.07;;
64560;SDS011;50960;46.838;16.838;2023-06-24T00:22:05;8.30;;;6.55;;
64560;SDS011;50960;46.838;16.838;2023-06-24T00:24:31;9.82;;;6.43;;
64560;SDS011;50960;46.838;16.838;2023-06-24T00:26:58;8.63;;;6.70;;
64560;SDS011;50960;46.838;16.838;2023-06-24T00:29:24;10.80;;;6.70;;
64560;SDS011;50960;46.838;16.838;2023-06-24T00:31:50;9.57;;;6.78;;
64560;SDS011;50960;46.838;16.838;2023-06-24T00:34:16;11.07;;;6.78;;
64560;SDS011;50960;46.838;16.838;2023-06-24T00:36:45;9.13;;;6.63;;
64560;SDS011;50960;46.838;16.838;2023-06-24T00:39:12;9.00;;;6.63;;
64560;SDS011;50960;46.838;16.838;2023-06-24T00:41:38;10.25;;;6.88;;
64560;SDS011;50960;46.838;16.838;2023-06-24T00:44:05;7.88;;;7.03;;
64560;SDS011;50960;46.838;16.838;2023-06-24T00:46:31;7.78;;;6.68;;
64560;SDS011;50960;46.838;16.838;2023-06-24T00:48:58;8.18;;;6.60;;
64560;SDS011;50960;46.838;16.838;2023-06-24T00:51:26;9.27;;;6.88;;
64560;SDS011;50960;46.838;16.838;2023-06-24T00:53:56;8.85;;;7.13;;
64560;SDS011;50960;46.838;16.838;2023-06-24T00:56:25;8.60;;;6.68;;
64560;SDS011;50960;46.838;16.838;2023-06-24T00:58:54;10.27;;;6.88;;
64560;SDS011;50960;46.838;16.838;2023-06-24T01:01:23;8.95;;;6.40;;
64560;SDS011;50960;46.838;16.838;2023-06-24T01:03:49;10.20;;;7.00;;
64560;SDS011;50960;46.838;16.838;2023-06-24T01:06:16;7.10;;;6.38;;
64560;SDS011;50960;46.838;16.838;2023-06-24T01:08:43;12.75;;;6.95;;
64560;SDS011;50960;46.838;16.838;2023-06-24T01:11:21;10.27;;;6.63;;
64560;SDS011;50960;46.838;16.838;2023-06-24T01:13:48;9.57;;;6.60;;
64560;SDS011;50960;46.838;16.838;2023-06-24T01:16:16;10.93;;;6.75;;
64560;SDS011;50960;46.838;16.838;2023-06-24T01:19:01;7.70;;;6.68;;
64560;SDS011;50960;46.838;16.838;2023-06-24T01:21:50;8.40;;;6.72;;
64560;SDS011;50960;46.838;16.838;2023-06-24T01:30:13;7.32;;;6.50;;
64560;SDS011;50960;46.838;16.838;2023-06-24T01:32:59;7.30;;;6.40;;
64560;SDS011;50960;46.838;16.838;2023-06-24T01:35:34;8.75;;;7.00;;
64560;SDS011;50960;46.838;16.838;2023-06-24T01:38:09;10.32;;;6.88;;
64560;SDS011;50960;46.838;16.838;2023-06-24T01:40:43;8.60;;;6.30;;
64560;SDS011;50960;46.838;16.838;2023-06-24T01:43:11;7.15;;;6.10;;
64560;SDS011;50960;46.838;16.838;2023-06-24T01:45:42;11.60;;;6.40;;
64560;SDS011;50960;46.838;16.838;2023-06-24T01:48:18;7.82;;;6.60;;
64560;SDS011;50960;46.838;16.838;2023-06-24T01:50:55;7.07;;;6.22;;
64560;SDS011;50960;46.838;16.838;2023-06-24T01:53:23;6.78;;;6.00;;
64560;SDS011;50960;46.838;16.838;2023-06-24T01:55:52;7.78;;;5.70;;
64560;SDS011;50960;46.838;16.838;2023-06-24T01:58:20;8.68;;;6.20;;
64560;SDS011;50960;46.838;16.838;2023-06-24T02:00:48;8.38;;;6.18;;
64560;SDS011;50960;46.838;16.838;2023-06-24T02:03:15;7.47;;;6.13;;
64560;SDS011;50960;46.838;16.838;2023-06-24T02:05:44;9.10;;;6.15;;
64560;SDS011;50960;46.838;16.838;2023-06-24T02:08:11;8.60;;;6.20;;
64560;SDS011;50960;46.838;16.838;2023-06-24T02:10:39;7.97;;;6.13;;
64560;SDS011;50960;46.838;16.838;2023-06-24T02:13:07;12.20;;;5.90;;
64560;SDS011;50960;46.838;16.838;2023-06-24T02:15:35;7.97;;;5.63;;
64560;SDS011;50960;46.838;16.838;2023-06-24T02:18:03;10.80;;;5.80;;
64560;SDS011;50960;46.838;16.838;2023-06-24T02:20:30;11.40;;;5.85;;
64560;SDS011;50960;46.838;16.838;2023-06-24T02:22:57;7.00;;;5.50;;
64560;SDS011;50960;46.838;16.838;2023-06-24T02:25:25;9.38;;;5.75;;
64560;SDS011;50960;46.838;16.838;2023-06-24T02:27:53;7.70;;;5.45;;
64560;SDS011;50960;46.838;16.838;2023-06-24T02:30:21;10.63;;;5.40;;
64560;SDS011;50960;46.838;16.838;2023-06-24T02:32:48;9.43;;;5.85;;
64560;SDS011;50960;46.838;16.838;2023-06-24T02:35:15;7.90;;;4.95;;
64560;SDS011;50960;46.838;16.838;2023-06-24T02:37:41;8.90;;;5.30;;
64560;SDS011;50960;46.838;16.838;2023-06-24T02:40:07;7.20;;;4.90;;
64560;SDS011;50960;46.838;16.838;2023-06-24T02:42:35;10.93;;;5.18;;
64560;SDS011;50960;46.838;16.838;2023-06-24T02:45:02;9.52;;;5.10;;
64560;SDS011;50960;46.838;16.838;2023-06-24T02:47:30;6.60;;;4.72;;
64560;SDS011;50960;46.838;16.838;2023-06-24T02:49:57;10.63;;;4.70;;
64560;SDS011;50960;46.838;16.838;2023-06-24T02:52:24;6.30;;;4.60;;
64560;SDS011;50960;46.838;16.838;2023-06-24T02:54:55;5.70;;;4.10;;
64560;SDS011;50960;46.838;16.838;2023-06-24T02:57:23;6.00;;;3.50;;
64560;SDS011;50960;46.838;16.838;2023-06-24T02:59:51;4.13;;;3.33;;
64560;SDS011;50960;46.838;16.838;2023-06-24T03:02:17;5.68;;;3.40;;
64560;SDS011;50960;46.838;16.838;2023-06-24T03:04:43;4.78;;;3.50;;
64560;SDS011;50960;46.838;16.838;2023-06-24T03:07:11;6.55;;;3.40;;
64560;SDS011;50960;46.838;16.838;2023-06-24T03:09:37;3.17;;;2.80;;
64560;SDS011;50960;46.838;16.838;2023-06-24T03:12:05;3.75;;;3.00;;
64560;SDS011;50960;46.838;16.838;2023-06-24T03:14:31;5.43;;;3.05;;
64560;SDS011;50960;46.838;16.838;2023-06-24T03:16:58;4.10;;;3.17;;
64560;SDS011;50960;46.838;16.838;2023-06-24T03:19:24;6.63;;;3.40;;
64560;SDS011;50960;46.838;16.838;2023-06-24T03:21:50;8.02;;;2.95;;
64560;SDS011;50960;46.838;16.838;2023-06-24T03:24:17;3.72;;;3.28;;
64560;SDS011;50960;46.838;16.838;2023-06-24T03:26:43;6.45;;;3.42;;
64560;SDS011;50960;46.838;16.838;2023-06-24T03:29:09;5.55;;;3.10;;
64560;SDS011;50960;46.838;16.838;2023-06-24T03:31:37;5.47;;;3.10;;
64560;SDS011;50960;46.838;16.838;2023-06-24T03:34:03;5.85;;;3.20;;
64560;SDS011;50960;46.838;16.838;2023-06-24T03:36:29;5.43;;;3.15;;
64560;SDS011;50960;46.838;16.838;2023-06-24T03:38:56;3.95;;;2.95;;
64560;SDS011;50960;46.838;16.838;2023-06-24T03:41:22;6.20;;;2.95;;
64560;SDS011;50960;46.838;16.838;2023-06-24T03:43:48;6.53;;;2.85;;
64560;SDS011;50960;46.838;16.838;2023-06-24T03:46:14;5.55;;;2.45;;
64560;SDS011;50960;46.838;16.838;2023-06-24T03:48:41;6.32;;;2.40;;
64560;SDS011;50960;46.838;16.838;2023-06-24T03:51:07;3.75;;;2.10;;
64560;SDS011;50960;46.838;16.838;2023-06-24T03:53:33;5.43;;;2.70;;
64560;SDS011;50960;46.838;16.838;2023-06-24T03:56:00;4.45;;;2.67;;
64560;SDS011;50960;46.838;16.838;2023-06-24T03:58:26;5.80;;;3.13;;
64560;SDS011;50960;46.838;16.838;2023-06-24T04:00:53;7.10;;;2.95;;
64560;SDS011;50960;46.838;16.838;2023-06-24T04:03:23;6.80;;;2.85;;
64560;SDS011;50960;46.838;16.838;2023-06-24T04:05:53;4.63;;;3.33;;
64560;SDS011;50960;46.838;16.838;2023-06-24T04:08:22;4.90;;;3.00;;
64560;SDS011;50960;46.838;16.838;2023-06-24T04:10:50;2.55;;;2.30;;
64560;SDS011;50960;46.838;16.838;2023-06-24T04:13:17;5.25;;;2.75;;
64560;SDS011;50960;46.838;16.838;2023-06-24T04:15:43;5.75;;;3.40;;
64560;SDS011;50960;46.838;16.838;2023-06-24T04:18:10;5.22;;;2.60;;
64560;SDS011;50960;46.838;16.838;2023-06-24T04:20:36;4.75;;;2.53;;
64560;SDS011;50960;46.838;16.838;2023-06-24T04:23:03;4.28;;;2.75;;
64560;SDS011;50960;46.838;16.838;2023-06-24T04:25:31;4.93;;;2.80;;
64560;SDS011;50960;46.838;16.838;2023-06-24T04:27:57;8.40;;;4.70;;
64560;SDS011;50960;46.838;16.838;2023-06-24T04:30:24;3.60;;;2.72;;
64560;SDS011;50960;46.838;16.838;2023-06-24T04:32:50;4.20;;;3.00;;
64560;SDS011;50960;46.838;16.838;2023-06-24T04:35:17;5.38;;;2.80;;
64560;SDS011;50960;46.838;16.838;2023-06-24T04:37:43;6.25;;;4.43;;
64560;SDS011;50960;46.838;16.838;2023-06-24T04:40:10;4.80;;;2.92;;
64560;SDS011;50960;46.838;16.838;2023-06-24T04:42:36;4.45;;;3.60;;
64560;SDS011;50960;46.838;16.838;2023-06-24T04:45:03;5.50;;;3.30;;
64560;SDS011;50960;46.838;16.838;2023-06-24T04:47:30;5.07;;;3.10;;
64560;SDS011;50960;46.838;16.838;2023-06-24T04:49:57;4.13;;;2.83;;
64560;SDS011;50960;46.838;16.838;2023-06-24T04:52:23;4.10;;;2.88;;
64560;SDS011;50960;46.838;16.838;2023-06-24T04:54:49;6.45;;;3.42;;
64560;SDS011;50960;46.838;16.838;2023-06-24T04:57:49;4.03;;;3.00;;
64560;SDS011;50960;46.838;16.838;2023-06-24T05:00:08;5.43;;;3.30;;
64560;SDS011;50960;46.838;16.838;2023-06-24T05:02:35;4.90;;;3.22;;
64560;SDS011;50960;46.838;16.838;2023-06-24T05:05:01;3.47;;;3.17;;
64560;SDS011;50960;46.838;16.838;2023-06-24T05:07:27;5.18;;;2.50;;
64560;SDS011;50960;46.838;16.838;2023-06-24T05:09:53;3.92;;;2.50;;
64560;SDS011;50960;46.838;16.838;2023-06-24T05:12:20;3.00;;;2.50;;
64560;SDS011;50960;46.838;16.838;2023-06-24T05:14:52;3.15;;;2.40;;
64560;SDS011;50960;46.838;16.838;2023-06-24T05:17:19;6.10;;;3.15;;
64560;SDS011;50960;46.838;16.838;2023-06-24T05:19:45;5.00;;;2.88;;
64560;SDS011;50960;46.838;16.838;2023-06-24T05:22:12;4.47;;;2.80;;
64560;SDS011;50960;46.838;16.838;2023-06-24T05:24:38;5.13;;;2.58;;
64560;SDS011;50960;46.838;16.838;2023-06-24T05:27:06;3.42;;;2.20;;
64560;SDS011;50960;46.838;16.838;2023-06-24T05:29:33;3.47;;;2.60;;
64560;SDS011;50960;46.838;16.838;2023-06-24T05:32:00;5.15;;;2.67;;
64560;SDS011;50960;46.838;16.838;2023-06-24T05:34:29;3.05;;;2.75;;
64560;SDS011;50960;46.838;16.838;2023-06-24T05:36:56;4.38;;;2.55;;
64560;SDS011;50960;46.838;16.838;2023-06-24T05:39:22;6.05;;;2.95;;
64560;SDS011;50960;46.838;16.838;2023-06-24T05:41:49;5.85;;;3.40;;
64560;SDS011;50960;46.838;16.838;2023-06-24T05:44:15;4.93;;;3.20;;
64560;SDS011;50960;46.838;16.838;2023-06-24T05:46:46;3.78;;;2.95;;
64560;SDS011;50960;46.838;16.838;2023-06-24T05:49:12;5.45;;;3.38;;
64560;SDS011;50960;46.838;16.838;2023-06-24T05:51:39;3.80;;;3.45;;
64560;SDS011;50960;46.838;16.838;2023-06-24T05:54:05;4.97;;;3.00;;
64560;SDS011;50960;46.838;16.838;2023-06-24T05:56:33;4.43;;;3.35;;
64560;SDS011;50960;46.838;16.838;2023-06-24T05:59:00;3.83;;;3.42;;
64560;SDS011;50960;46.838;16.838;2023-06-24T06:01:26;3.22;;;2.95;;
64560;SDS011;50960;46.838;16.838;2023-06-24T06:03:53;4.93;;;3.20;;
64560;SDS011;50960;46.838;16.838;2023-06-24T06:06:20;3.90;;;3.60;;
64560;SDS011;50960;46.838;16.838;2023-06-24T06:08:46;4.65;;;3.58;;
64560;SDS011;50960;46.838;16.838;2023-06-24T06:11:13;5.57;;;3.63;;
64560;SDS011;50960;46.838;16.838;2023-06-24T06:13:39;5.80;;;3.47;;
64560;SDS011;50960;46.838;16.838;2023-06-24T06:16:05;5.60;;;4.05;;
64560;SDS011;50960;46.838;16.838;2023-06-24T06:18:32;3.90;;;3.38;;
64560;SDS011;50960;46.838;16.838;2023-06-24T06:20:59;4.63;;;3.80;;
64560;SDS011;50960;46.838;16.838;2023-06-24T06:23:25;4.70;;;4.25;;
64560;SDS011;50960;46.838;16.838;2023-06-24T06:25:52;8.23;;;6.85;;
64560;SDS011;50960;46.838;16.838;2023-06-24T06:28:19;6.78;;;4.88;;
64560;SDS011;50960;46.838;16.838;2023-06-24T06:30:45;4.65;;;3.90;;
64560;SDS011;50960;46.838;16.838;2023-06-24T06:33:11;5.85;;;4.28;;
64560;SDS011;50960;46.838;16.838;2023-06-24T06:35:37;8.10;;;4.28;;
64560;SDS011;50960;46.838;16.838;2023-06-24T06:38:04;7.65;;;4.10;;
64560;SDS011;50960;46.838;16.838;2023-06-24T06:40:31;6.45;;;4.20;;
64560;SDS011;50960;46.838;16.838;2023-06-24T06:42:57;5.55;;;4.43;;
64560;SDS011;50960;46.838;16.838;2023-06-24T06:45:23;4.75;;;4.25;;
64560;SDS011;50960;46.838;16.838;2023-06-24T06:47:50;6.13;;;4.80;;
64560;SDS011;50960;46.838;16.838;2023-06-24T06:50:16;6.20;;;4.95;;
64560;SDS011;50960;46.838;16.838;2023-06-24T06:52:42;7.70;;;5.97;;
64560;SDS011;50960;46.838;16.838;2023-06-24T06:55:09;8.50;;;5.32;;
64560;SDS011;50960;46.838;16.838;2023-06-24T06:57:35;8.55;;;5.25;;
64560;SDS011;50960;46.838;16.838;2023-06-24T07:00:02;5.90;;;4.80;;
64560;SDS011;50960;46.838;16.838;2023-06-24T07:02:29;5.03;;;4.57;;
64560;SDS011;50960;46.838;16.838;2023-06-24T07:04:55;7.07;;;5.43;;
64560;SDS011;50960;46.838;16.838;2023-06-24T07:07:22;6.05;;;4.80;;
64560;SDS011;50960;46.838;16.838;2023-06-24T07:09:48;6.13;;;4.88;;
64560;SDS011;50960;46.838;16.838;2023-06-24T07:12:14;5.28;;;4.80;;
64560;SDS011;50960;46.838;16.838;2023-06-24T07:14:40;5.53;;;5.03;;
64560;SDS011;50960;46.838;16.838;2023-06-24T07:17:07;5.35;;;4.78;;
64560;SDS011;50960;46.838;16.838;2023-06-24T07:19:33;6.15;;;4.70;;
64560;SDS011;50960;46.838;16.838;2023-06-24T07:21:59;5.50;;;5.00;;
64560;SDS011;50960;46.838;16.838;2023-06-24T07:24:26;5.35;;;4.55;;
64560;SDS011;50960;46.838;16.838;2023-06-24T07:26:52;5.85;;;5.28;;
64560;SDS011;50960;46.838;16.838;2023-06-24T07:29:18;5.13;;;4.72;;
64560;SDS011;50960;46.838;16.838;2023-06-24T07:31:44;6.05;;;5.00;;
64560;SDS011;50960;46.838;16.838;2023-06-24T07:34:11;4.63;;;4.22;;
64560;SDS011;50960;46.838;16.838;2023-06-24T07:36:37;5.20;;;4.70;;
64560;SDS011;50960;46.838;16.838;2023-06-24T07:39:03;5.13;;;4.72;;
64560;SDS011;50960;46.838;16.838;2023-06-24T07:41:30;5.55;;;4.95;;
64560;SDS011;50960;46.838;16.838;2023-06-24T07:43:56;8.75;;;6.18;;
64560;SDS011;50960;46.838;16.838;2023-06-24T07:46:22;5.10;;;4.60;;
64560;SDS011;50960;46.838;16.838;2023-06-24T07:48:49;6.53;;;5.25;;
64560;SDS011;50960;46.838;16.838;2023-06-24T07:51:15;8.75;;;4.40;;
64560;SDS011;50960;46.838;16.838;2023-06-24T07:53:41;4.85;;;4.45;;
64560;SDS011;50960;46.838;16.838;2023-06-24T07:56:08;5.43;;;4.78;;
64560;SDS011;50960;46.838;16.838;2023-06-24T07:58:34;5.60;;;5.03;;
64560;SDS011;50960;46.838;16.838;2023-06-24T08:01:02;5.15;;;4.65;;
64560;SDS011;50960;46.838;16.838;2023-06-24T08:03:28;4.75;;;4.30;;
64560;SDS011;50960;46.838;16.838;2023-06-24T08:05:55;4.05;;;3.75;;
64560;SDS011;50960;46.838;16.838;2023-06-24T08:08:22;4.80;;;4.40;;
64560;SDS011;50960;46.838;16.838;2023-06-24T08:10:48;4.03;;;3.72;;
64560;SDS011;50960;46.838;16.838;2023-06-24T08:13:14;4.40;;;3.83;;
64560;SDS011;50960;46.838;16.838;2023-06-24T08:15:40;3.78;;;3.33;;
64560;SDS011;50960;46.838;16.838;2023-06-24T08:18:07;3.72;;;3.40;;
64560;SDS011;50960;46.838;16.838;2023-06-24T08:20:33;3.58;;;3.28;;
64560;SDS011;50960;46.838;16.838;2023-06-24T08:22:59;3.70;;;3.40;;
64560;SDS011;50960;46.838;16.838;2023-06-24T08:25:25;4.82;;;4.03;;
64560;SDS011;50960;46.838;16.838;2023-06-24T08:27:52;4.85;;;4.45;;
64560;SDS011;50960;46.838;16.838;2023-06-24T08:33:37;3.00;;;2.78;;
64560;SDS011;50960;46.838;16.838;2023-06-24T08:36:04;3.28;;;2.70;;
64560;SDS011;50960;46.838;16.838;2023-06-24T08:38:30;3.33;;;3.03;;
64560;SDS011;50960;46.838;16.838;2023-06-24T08:40:56;2.78;;;2.58;;
64560;SDS011;50960;46.838;16.838;2023-06-24T08:43:23;3.72;;;3.03;;
64560;SDS011;50960;46.838;16.838;2023-06-24T08:45:49;3.35;;;3.00;;
64560;SDS011;50960;46.838;16.838;2023-06-24T08:48:15;3.60;;;3.30;;
64560;SDS011;50960;46.838;16.838;2023-06-24T08:56:32;3.38;;;3.08;;
64560;SDS011;50960;46.838;16.838;2023-06-24T09:02:21;3.38;;;3.10;;
64560;SDS011;50960;46.838;16.838;2023-06-24T09:04:48;3.35;;;2.80;;
64560;SDS011;50960;46.838;16.838;2023-06-24T09:07:24;3.58;;;2.80;;
64560;SDS011;50960;46.838;16.838;2023-06-24T09:09:52;2.80;;;2.60;;
64560;SDS011;50960;46.838;16.838;2023-06-24T09:12:19;3.17;;;2.97;;
64560;SDS011;50960;46.838;16.838;2023-06-24T09:14:48;2.30;;;2.20;;
64560;SDS011;50960;46.838;16.838;2023-06-24T09:17:16;2.28;;;2.10;;
64560;SDS011;50960;46.838;16.838;2023-06-24T09:19:43;4.47;;;2.80;;
64560;SDS011;50960;46.838;16.838;2023-06-24T09:22:09;2.80;;;2.60;;
64560;SDS011;50960;46.838;16.838;2023-06-24T09:24:42;2.40;;;2.28;;
64560;SDS011;50960;46.838;16.838;2023-06-24T09:27:15;2.80;;;2.60;;
64560;SDS011;50960;46.838;16.838;2023-06-24T09:29:45;2.88;;;2.10;;
64560;SDS011;50960;46.838;16.838;2023-06-24T09:32:12;1.70;;;1.60;;
64560;SDS011;50960;46.838;16.838;2023-06-24T09:34:39;1.33;;;1.30;;
64560;SDS011;50960;46.838;16.838;2023-06-24T09:37:05;1.17;;;1.17;;
64560;SDS011;50960;46.838;16.838;2023-06-24T09:39:35;0.80;;;0.80;;
64560;SDS011;50960;46.838;16.838;2023-06-24T09:42:03;0.75;;;0.60;;
64560;SDS011;50960;46.838;16.838;2023-06-24T09:44:32;0.50;;;0.50;;
64560;SDS011;50960;46.838;16.838;2023-06-24T09:46:59;0.20;;;0.20;;
64560;SDS011;50960;46.838;16.838;2023-06-24T09:49:25;0.30;;;0.20;;
64560;SDS011;50960;46.838;16.838;2023-06-24T09:52:00;0.20;;;0.20;;
64560;SDS011;50960;46.838;16.838;2023-06-24T09:54:49;0.85;;;0.22;;
64560;SDS011;50960;46.838;16.838;2023-06-24T09:57:18;0.88;;;0.20;;
64560;SDS011;50960;46.838;16.838;2023-06-24T09:59:47;1.20;;;0.20;;
64560;SDS011;50960;46.838;16.838;2023-06-24T10:02:15;0.90;;;0.20;;
64560;SDS011;50960;46.838;16.838;2023-06-24T10:04:43;0.30;;;0.30;;
64560;SDS011;50960;46.838;16.838;2023-06-24T10:07:12;4.20;;;0.70;;
64560;SDS011;50960;46.838;16.838;2023-06-24T10:09:40;0.57;;;0.40;;
64560;SDS011;50960;46.838;16.838;2023-06-24T10:12:06;0.95;;;0.40;;
64560;SDS011;50960;46.838;16.838;2023-06-24T10:14:33;0.40;;;0.40;;
64560;SDS011;50960;46.838;16.838;2023-06-24T10:17:02;0.95;;;0.43;;
64560;SDS011;50960;46.838;16.838;2023-06-24T10:19:29;19.98;;;0.63;;
64560;SDS011;50960;46.838;16.838;2023-06-24T10:22:02;0.30;;;0.30;;
64560;SDS011;50960;46.838;16.838;2023-06-24T10:24:39;0.10;;;0.10;;
64560;SDS011;50960;46.838;16.838;2023-06-24T10:27:08;1.00;;;0.40;;
64560;SDS011;50960;46.838;16.838;2023-06-24T10:29:39;0.32;;;0.32;;
64560;SDS011;50960;46.838;16.838;2023-06-24T10:32:09;0.38;;;0.38;;
64560;SDS011;50960;46.838;16.838;2023-06-24T10:34:45;0.63;;;0.63;;
64560;SDS011;50960;46.838;16.838;2023-06-24T10:37:19;1.80;;;0.47;;
64560;SDS011;50960;46.838;16.838;2023-06-24T10:39:53;0.40;;;0.40;;
64560;SDS011;50960;46.838;16.838;2023-06-24T10:45:17;0.30;;;0.30;;
64560;SDS011;50960;46.838;16.838;2023-06-24T10:47:48;0.50;;;0.50;;
64560;SDS011;50960;46.838;16.838;2023-06-24T10:50:17;0.50;;;0.50;;
64560;SDS011;50960;46.838;16.838;2023-06-24T10:52:46;0.70;;;0.40;;
64560;SDS011;50960;46.838;16.838;2023-06-24T10:55:17;0.50;;;0.50;;
64560;SDS011;50960;46.838;16.838;2023-06-24T10:57:44;0.50;;;0.50;;
64560;SDS011;50960;46.838;16.838;2023-06-24T11:00:11;0.50;;;0.50;;
64560;SDS011;50960;46.838;16.838;2023-06-24T11:02:39;0.35;;;0.35;;
64560;SDS011;50960;46.838;16.838;2023-06-24T11:05:05;0.52;;;0.52;;
64560;SDS011;50960;46.838;16.838;2023-06-24T11:07:33;0.60;;;0.45;;
64560;SDS011;50960;46.838;16.838;2023-06-24T11:10:02;0.47;;;0.43;;
64560;SDS011;50960;46.838;16.838;2023-06-24T11:12:33;0.40;;;0.40;;
64560;SDS011;50960;46.838;16.838;2023-06-24T11:15:02;0.50;;;0.50;;
64560;SDS011;50960;46.838;16.838;2023-06-24T11:17:32;0.52;;;0.50;;
64560;SDS011;50960;46.838;16.838;2023-06-24T11:20:00;2.03;;;0.90;;
64560;SDS011;50960;46.838;16.838;2023-06-24T11:22:27;0.60;;;0.60;;
64560;SDS011;50960;46.838;16.838;2023-06-24T11:24:54;0.50;;;0.50;;
64560;SDS011;50960;46.838;16.838;2023-06-24T11:27:27;0.50;;;0.50;;
64560;SDS011;50960;46.838;16.838;2023-06-24T11:29:55;0.63;;;0.63;;
64560;SDS011;50960;46.838;16.838;2023-06-24T11:32:39;0.70;;;0.70;;
64560;SDS011;50960;46.838;16.838;2023-06-24T11:35:10;0.70;;;0.70;;
64560;SDS011;50960;46.838;16.838;2023-06-24T11:37:40;0.52;;;0.52;;
64560;SDS011;50960;46.838;16.838;2023-06-24T11:40:09;0.93;;;0.80;;
64560;SDS011;50960;46.838;16.838;2023-06-24T11:42:39;0.63;;;0.63;;
64560;SDS011;50960;46.838;16.838;2023-06-24T11:45:10;0.85;;;0.55;;
64560;SDS011;50960;46.838;16.838;2023-06-24T11:47:37;0.82;;;0.70;;
64560;SDS011;50960;46.838;16.838;2023-06-24T11:50:05;2.22;;;0.80;;
64560;SDS011;50960;46.838;16.838;2023-06-24T11:58:00;1.27;;;0.70;;
64560;SDS011;50960;46.838;16.838;2023-06-24T12:00:31;2.35;;;0.90;;
64560;SDS011;50960;46.838;16.838;2023-06-24T12:03:02;0.80;;;0.70;;
64560;SDS011;50960;46.838;16.838;2023-06-24T12:05:35;1.42;;;0.80;;
64560;SDS011;50960;46.838;16.838;2023-06-24T12:08:04;1.50;;;0.70;;
64560;SDS011;50960;46.838;16.838;2023-06-24T12:10:32;0.95;;;0.63;;
64560;SDS011;50960;46.838;16.838;2023-06-24T12:13:02;0.57;;;0.52;;
64560;SDS011;50960;46.838;16.838;2023-06-24T12:15:31;0.50;;;0.50;;
64560;SDS011;50960;46.838;16.838;2023-06-24T12:17:58;1.08;;;0.60;;
64560;SDS011;50960;46.838;16.838;2023-06-24T12:20:25;2.25;;;0.80;;
64560;SDS011;50960;46.838;16.838;2023-06-24T12:22:51;1.27;;;0.70;;
64560;SDS011;50960;46.838;16.838;2023-06-24T12:25:18;0.40;;;0.40;;
64560;SDS011;50960;46.838;16.838;2023-06-24T12:27:44;1.30;;;0.88;;
64560;SDS011;50960;46.838;16.838;2023-06-24T12:30:11;2.05;;;0.88;;
64560;SDS011;50960;46.838;16.838;2023-06-24T12:32:38;1.20;;;0.70;;
64560;SDS011;50960;46.838;16.838;2023-06-24T12:35:05;0.70;;;0.70;;
64560;SDS011;50960;46.838;16.838;2023-06-24T12:37:33;0.50;;;0.50;;
64560;SDS011;50960;46.838;16.838;2023-06-24T12:40:00;1.10;;;0.60;;
64560;SDS011;50960;46.838;16.838;2023-06-24T12:42:27;0.52;;;0.52;;
64560;SDS011;50960;46.838;16.838;2023-06-24T12:44:54;0.60;;;0.60;;
64560;SDS011;50960;46.838;16.838;2023-06-24T12:47:20;2.50;;;0.75;;
64560;SDS011;50960;46.838;16.838;2023-06-24T12:49:47;0.55;;;0.50;;
64560;SDS011;50960;46.838;16.838;2023-06-24T12:52:15;0.85;;;0.70;;
64560;SDS011;50960;46.838;16.838;2023-06-24T12:54:41;1.10;;;0.68;;
64560;SDS011;50960;46.838;16.838;2023-06-24T12:57:08;0.60;;;0.60;;
64560;SDS011;50960;46.838;16.838;2023-06-24T12:59:34;0.70;;;0.70;;
64560;SDS011;50960;46.838;16.838;2023-06-24T13:02:01;0.73;;;0.70;;
64560;SDS011;50960;46.838;16.838;2023-06-24T13:04:27;2.50;;;1.02;;
64560;SDS011;50960;46.838;16.838;2023-06-24T13:06:53;1.00;;;1.00;;
64560;SDS011;50960;46.838;16.838;2023-06-24T13:09:20;0.95;;;0.95;;
64560;SDS011;50960;46.838;16.838;2023-06-24T13:11:46;0.90;;;0.90;;
64560;SDS011;50960;46.838;16.838;2023-06-24T13:14:13;1.02;;;1.00;;
64560;SDS011;50960;46.838;16.838;2023-06-24T13:16:40;3.10;;;1.00;;
64560;SDS011;50960;46.838;16.838;2023-06-24T13:19:06;0.70;;;0.70;;
64560;SDS011;50960;46.838;16.838;2023-06-24T13:21:33;0.98;;;0.68;;
64560;SDS011;50960;46.838;16.838;2023-06-24T13:23:59;1.95;;;1.00;;
64560;SDS011;50960;46.838;16.838;2023-06-24T13:26:26;1.15;;;0.82;;
64560;SDS011;50960;46.838;16.838;2023-06-24T13:28:52;1.00;;;1.00;;
64560;SDS011;50960;46.838;16.838;2023-06-24T13:31:20;0.65;;;0.65;;
64560;SDS011;50960;46.838;16.838;2023-06-24T13:33:46;0.80;;;0.80;;
64560;SDS011;50960;46.838;16.838;2023-06-24T13:36:28;0.68;;;0.68;;
64560;SDS011;50960;46.838;16.838;2023-06-24T13:39:06;0.73;;;0.73;;
64560;SDS011;50960;46.838;16.838;2023-06-24T13:41:32;3.28;;;0.90;;
64560;SDS011;50960;46.838;16.838;2023-06-24T13:43:59;1.00;;;1.00;;
64560;SDS011;50960;46.838;16.838;2023-06-24T13:46:27;3.75;;;2.40;;
64560;SDS011;50960;46.838;16.838;2023-06-24T13:48:54;3.95;;;2.90;;
64560;SDS011;50960;46.838;16.838;2023-06-24T13:51:21;5.18;;;3.17;;
64560;SDS011;50960;46.838;16.838;2023-06-24T13:53:49;4.68;;;3.08;;
64560;SDS011;50960;46.838;16.838;2023-06-24T13:56:18;6.10;;;3.45;;
64560;SDS011;50960;46.838;16.838;2023-06-24T13:58:45;18.88;;;8.82;;
64560;SDS011;50960;46.838;16.838;2023-06-24T14:01:12;6.30;;;4.65;;
64560;SDS011;50960;46.838;16.838;2023-06-24T14:03:39;5.57;;;3.70;;
64560;SDS011;50960;46.838;16.838;2023-06-24T14:06:05;7.05;;;3.88;;
64560;SDS011;50960;46.838;16.838;2023-06-24T14:08:32;4.05;;;3.65;;
64560;SDS011;50960;46.838;16.838;2023-06-24T14:10:59;7.70;;;4.68;;
64560;SDS011;50960;46.838;16.838;2023-06-24T14:13:26;3.88;;;3.22;;
64560;SDS011;50960;46.838;16.838;2023-06-24T14:15:54;7.60;;;4.53;;
64560;SDS011;50960;46.838;16.838;2023-06-24T14:18:21;4.07;;;3.40;;
64560;SDS011;50960;46.838;16.838;2023-06-24T14:20:47;3.85;;;3.47;;
64560;SDS011;50960;46.838;16.838;2023-06-24T14:23:14;9.05;;;4.50;;
64560;SDS011;50960;46.838;16.838;2023-06-24T14:25:41;6.10;;;4.10;;
64560;SDS011;50960;46.838;16.838;2023-06-24T14:28:07;3.55;;;3.22;;
64560;SDS011;50960;46.838;16.838;2023-06-24T14:30:33;3.60;;;3.28;;
64560;SDS011;50960;46.838;16.838;2023-06-24T14:33:00;3.33;;;3.13;;
64560;SDS011;50960;46.838;16.838;2023-06-24T14:35:26;3.95;;;3.65;;
64560;SDS011;50960;46.838;16.838;2023-06-24T14:37:53;4.80;;;3.58;;
64560;SDS011;50960;46.838;16.838;2023-06-24T14:40:19;3.60;;;3.30;;
64560;SDS011;50960;46.838;16.838;2023-06-24T14:42:45;3.55;;;3.25;;
64560;SDS011;50960;46.838;16.838;2023-06-24T14:45:11;3.50;;;3.20;;
64560;SDS011;50960;46.838;16.838;2023-06-24T14:47:38;3.60;;;3.20;;
64560;SDS011;50960;46.838;16.838;2023-06-24T14:50:04;3.60;;;3.30;;
64560;SDS011;50960;46.838;16.838;2023-06-24T14:52:31;6.55;;;3.80;;
64560;SDS011;50960;46.838;16.838;2023-06-24T14:54:57;4.22;;;3.83;;
64560;SDS011;50960;46.838;16.838;2023-06-24T14:57:23;3.72;;;3.42;;
64560;SDS011;50960;46.838;16.838;2023-06-24T14:59:51;3.50;;;3.20;;
64560;SDS011;50960;46.838;16.838;2023-06-24T15:02:17;4.35;;;3.45;;
64560;SDS011;50960;46.838;16.838;2023-06-24T15:04:44;3.55;;;3.25;;